createdAt,value
2019-06-27T00:05:00.145Z,5.40
2019-06-27T00:10:06.727Z,5.40
2019-06-27T00:15:12.257Z,4.57
2019-06-27T00:20:18.550Z,4.60
2019-06-27T00:25:23.738Z,4.90
2019-06-27T00:30:29.068Z,4.53
2019-06-27T00:35:34.204Z,4.55
2019-06-27T00:40:39.683Z,4.67
2019-06-27T00:45:44.956Z,4.33
2019-06-27T00:50:50.193Z,4.17
2019-06-27T00:55:55.402Z,3.52
2019-06-27T01:01:00.764Z,2.52
2019-06-27T01:06:05.960Z,2.10
2019-06-27T01:11:11.183Z,2.00
2019-06-27T01:16:16.291Z,2.03
2019-06-27T01:21:21.549Z,1.50
2019-06-27T01:26:26.732Z,2.23
2019-06-27T01:31:33.050Z,1.60
2019-06-27T01:36:38.312Z,1.77
2019-06-27T01:41:43.947Z,1.80
2019-06-27T01:46:49.092Z,1.90
2019-06-27T01:51:54.458Z,1.87
2019-06-27T01:56:59.595Z,1.40
2019-06-27T02:02:05.294Z,1.60
2019-06-27T02:07:10.612Z,1.30
2019-06-27T02:12:18.361Z,1.40
2019-06-27T02:17:23.497Z,1.37
2019-06-27T02:22:28.749Z,1.10
2019-06-27T02:27:34.102Z,1.10
2019-06-27T02:32:40.626Z,1.10
2019-06-27T02:37:45.833Z,1.20
2019-06-27T02:42:52.287Z,1.17
2019-06-27T02:47:57.479Z,1.20
2019-06-27T02:53:02.883Z,1.00
2019-06-27T02:58:28.837Z,1.50
2019-06-27T03:03:18.388Z,1.20
2019-06-27T03:08:23.630Z,0.98
2019-06-27T03:13:29.752Z,1.25
2019-06-27T03:18:34.883Z,1.27
2019-06-27T03:23:40.266Z,1.43
2019-06-27T03:28:53.317Z,2.00
2019-06-27T03:33:53.947Z,2.20
2019-06-27T03:38:59.121Z,1.97
2019-06-27T03:44:04.734Z,1.93
2019-06-27T03:49:10.072Z,1.60
2019-06-27T03:54:15.283Z,1.97
2019-06-27T03:59:20.475Z,1.97
2019-06-27T04:04:25.688Z,2.23
2019-06-27T04:09:31.033Z,2.58
2019-06-27T04:14:36.272Z,3.72
2019-06-27T04:19:41.408Z,2.70
2019-06-27T04:24:46.659Z,2.80
2019-06-27T04:29:51.877Z,2.40
2019-06-27T04:34:57.036Z,2.30
2019-06-27T04:40:02.218Z,2.98
2019-06-27T04:45:07.755Z,2.60
2019-06-27T04:50:13.199Z,3.10
2019-06-27T04:55:18.526Z,3.00
2019-06-27T05:00:29.809Z,3.60
2019-06-27T05:05:36.943Z,3.67
2019-06-27T05:10:42.984Z,3.30
2019-06-27T05:15:48.260Z,3.67
2019-06-27T05:20:53.579Z,3.40
2019-06-27T05:26:00.882Z,3.47
2019-06-27T05:31:06.000Z,3.30
2019-06-27T05:36:11.369Z,3.53
2019-06-27T05:41:16.654Z,3.97
2019-06-27T05:46:22.300Z,3.53
2019-06-27T05:51:27.607Z,4.17
2019-06-27T05:56:34.352Z,3.90
2019-06-27T06:01:39.558Z,4.28
2019-06-27T06:06:44.885Z,4.67
2019-06-27T06:11:50.193Z,3.90
2019-06-27T06:16:55.497Z,4.00
2019-06-27T06:22:00.615Z,3.73
2019-06-27T06:27:05.899Z,3.87
2019-06-27T06:32:11.888Z,3.70
2019-06-27T06:37:17.203Z,3.80
2019-06-27T06:42:23.214Z,4.00
2019-06-27T06:47:28.823Z,3.70
2019-06-27T06:52:34.161Z,4.87
2019-06-27T06:57:40.493Z,2.98
2019-06-27T07:02:45.822Z,3.58
2019-06-27T07:07:53.968Z,4.30
2019-06-27T07:12:59.154Z,3.73
2019-06-27T07:18:04.404Z,3.60
2019-06-27T07:23:09.535Z,4.23
2019-06-27T07:28:14.782Z,3.20
2019-06-27T07:33:20.024Z,3.40
2019-06-27T07:38:25.304Z,3.70
2019-06-27T07:43:31.552Z,3.35
2019-06-27T07:48:37.267Z,3.40
2019-06-27T07:53:42.590Z,3.67
2019-06-27T07:58:47.791Z,3.33
2019-06-27T08:03:53.388Z,3.83
2019-06-27T08:08:58.601Z,4.07
2019-06-27T08:14:04.912Z,5.50
2019-06-27T08:19:10.187Z,4.08
2019-06-27T08:24:15.365Z,4.00
2019-06-27T08:29:23.912Z,4.00
2019-06-27T08:34:29.083Z,3.27
2019-06-27T08:39:36.593Z,2.93
2019-06-27T08:44:41.686Z,2.87
2019-06-27T08:49:46.917Z,3.13
2019-06-27T08:54:52.346Z,3.33
2019-06-27T09:00:00.856Z,2.70
2019-06-27T09:05:06.341Z,2.80
2019-06-27T09:10:13.289Z,2.33
2019-06-27T09:15:19.144Z,2.37
2019-06-27T09:20:24.660Z,2.50
2019-06-27T09:25:29.811Z,2.50
2019-06-27T09:30:35.022Z,2.30
2019-06-27T09:35:40.197Z,2.20
2019-06-27T09:40:45.448Z,2.13
2019-06-27T09:45:50.611Z,1.87
2019-06-27T09:50:55.940Z,1.73
2019-06-27T09:56:01.187Z,2.17
2019-06-27T10:01:06.956Z,1.93
2019-06-27T10:06:12.428Z,1.80
2019-06-27T10:11:17.818Z,1.73
2019-06-27T10:16:23.207Z,2.10
2019-06-27T10:21:28.474Z,2.30
2019-06-27T10:26:33.645Z,1.63
2019-06-27T10:31:40.101Z,2.20
2019-06-27T10:36:46.178Z,2.10
2019-06-27T10:41:51.423Z,1.82
2019-06-27T10:46:56.592Z,1.90
2019-06-27T10:52:03.482Z,2.10
2019-06-27T10:57:08.948Z,1.80
2019-06-27T11:02:14.219Z,1.60
2019-06-27T11:07:19.521Z,2.00
2019-06-27T11:12:24.740Z,1.80
2019-06-27T11:17:29.856Z,1.53
2019-06-27T11:22:35.219Z,1.97
2019-06-27T11:27:40.500Z,1.73
2019-06-27T11:32:45.648Z,1.67
2019-06-27T11:37:50.840Z,2.00
2019-06-27T11:42:56.755Z,2.17
2019-06-27T11:48:01.917Z,2.17
2019-06-27T11:53:07.205Z,1.93
2019-06-27T11:58:13.037Z,1.93
2019-06-27T12:03:18.341Z,2.07
2019-06-27T12:08:23.566Z,1.77
2019-06-27T12:13:28.788Z,1.50
2019-06-27T12:18:34.012Z,1.53
2019-06-27T12:23:39.695Z,1.67
2019-06-27T12:28:46.685Z,1.37
2019-06-27T12:34:06.357Z,1.70
2019-06-27T12:39:22.129Z,1.25
2019-06-27T12:44:27.365Z,1.20
2019-06-27T12:49:56.562Z,2.00
2019-06-27T12:54:40.535Z,1.35
2019-06-27T12:59:47.608Z,1.37
2019-06-27T13:04:53.189Z,1.53
2019-06-27T13:09:59.992Z,2.30
2019-06-27T13:15:06.155Z,1.50
2019-06-27T13:20:11.751Z,1.17
2019-06-27T13:25:16.990Z,1.23
2019-06-27T13:30:22.388Z,1.40
2019-06-27T13:35:28.256Z,1.37
2019-06-27T13:40:33.942Z,1.30
2019-06-27T13:45:39.121Z,1.80
2019-06-27T13:50:44.270Z,1.77
2019-06-27T13:55:49.738Z,1.40
2019-06-27T14:00:55.045Z,1.90
2019-06-27T14:06:00.368Z,1.30
2019-06-27T14:11:07.538Z,1.80
2019-06-27T14:16:12.886Z,1.30
2019-06-27T14:21:18.172Z,1.60
2019-06-27T14:26:23.476Z,1.35
2019-06-27T14:31:29.846Z,1.30
2019-06-27T14:36:35.195Z,1.07
2019-06-27T14:41:40.370Z,1.40
2019-06-27T14:46:45.623Z,1.37
2019-06-27T14:51:50.787Z,0.98
2019-06-27T14:56:56.684Z,1.37
2019-06-27T15:02:01.854Z,1.27
2019-06-27T15:07:07.122Z,1.40
2019-06-27T15:12:12.455Z,1.57
2019-06-27T15:17:17.750Z,1.33
2019-06-27T15:22:22.996Z,1.65
2019-06-27T15:27:28.364Z,2.17
2019-06-27T15:32:33.588Z,1.00
2019-06-27T15:37:38.785Z,1.40
2019-06-27T15:42:43.919Z,1.50
2019-06-27T15:47:49.183Z,1.47
2019-06-27T15:52:54.435Z,1.37
2019-06-27T15:58:00.250Z,1.27
2019-06-27T16:03:05.943Z,2.47
2019-06-27T16:08:11.422Z,1.43
2019-06-27T16:13:16.975Z,1.37
2019-06-27T16:18:22.257Z,1.22
2019-06-27T16:23:27.537Z,1.10
2019-06-27T16:28:32.892Z,1.42
2019-06-27T16:33:38.062Z,1.37
2019-06-27T16:38:43.307Z,1.80
2019-06-27T16:43:48.409Z,1.60
2019-06-27T16:48:53.668Z,1.43
2019-06-27T16:54:01.114Z,1.63
2019-06-27T16:59:06.788Z,1.43
2019-06-27T17:04:13.379Z,1.80
2019-06-27T17:09:19.842Z,1.30
2019-06-27T17:14:24.995Z,2.02
2019-06-27T17:19:30.340Z,2.17
2019-06-27T17:24:36.867Z,2.00
2019-06-27T17:29:42.040Z,1.53
2019-06-27T17:34:47.241Z,1.90
2019-06-27T17:39:52.520Z,1.53
2019-06-27T17:44:59.773Z,1.67
2019-06-27T17:50:05.624Z,2.23
2019-06-27T17:55:12.345Z,1.80
2019-06-27T18:00:27.518Z,1.70
2019-06-27T18:05:33.237Z,1.92
2019-06-27T18:10:41.757Z,1.70
2019-06-27T18:15:49.021Z,1.70
2019-06-27T18:20:54.808Z,1.60
2019-06-27T18:26:00.066Z,1.93
2019-06-27T18:31:06.667Z,2.47
2019-06-27T18:36:11.972Z,1.73
2019-06-27T18:41:18.306Z,1.90
2019-06-27T18:46:23.532Z,1.90
2019-06-27T18:51:31.593Z,1.93
2019-06-27T18:56:38.036Z,1.90
2019-06-27T19:01:43.927Z,1.80
2019-06-27T19:06:49.624Z,1.90
2019-06-27T19:11:54.978Z,2.00
2019-06-27T19:17:00.258Z,2.42
2019-06-27T19:22:24.516Z,1.77
2019-06-27T19:27:30.178Z,2.25
2019-06-27T19:32:36.922Z,2.13
2019-06-27T19:37:42.338Z,2.17
2019-06-27T19:42:47.580Z,2.13
2019-06-27T19:47:53.069Z,2.10
2019-06-27T19:53:00.887Z,2.00
2019-06-27T19:58:06.091Z,1.97
2019-06-27T20:03:11.702Z,2.10
2019-06-27T20:08:19.690Z,2.50
2019-06-27T20:13:23.987Z,2.23
2019-06-27T20:18:29.221Z,2.13
2019-06-27T20:23:34.509Z,2.43
2019-06-27T20:28:39.766Z,1.70
2019-06-27T20:33:45.118Z,2.53
2019-06-27T20:38:51.515Z,2.33
2019-06-27T20:43:58.205Z,2.13
2019-06-27T20:49:03.885Z,2.10
2019-06-27T20:54:12.161Z,2.57
2019-06-27T20:59:16.349Z,1.97
2019-06-27T21:04:21.763Z,1.97
2019-06-27T21:09:27.380Z,1.93
2019-06-27T21:14:32.747Z,1.98
2019-06-27T21:19:38.023Z,1.82
2019-06-27T21:24:43.316Z,2.17
2019-06-27T21:29:48.434Z,2.13
2019-06-27T21:34:53.699Z,1.90
2019-06-27T21:39:58.852Z,2.20
2019-06-27T21:45:04.250Z,2.60
2019-06-27T21:50:09.754Z,2.05
2019-06-27T21:55:15.270Z,2.60
2019-06-27T22:00:21.022Z,2.40
2019-06-27T22:05:28.672Z,1.77
2019-06-27T22:10:34.107Z,2.43
2019-06-27T22:15:40.324Z,2.25
2019-06-27T22:20:46.682Z,2.73
2019-06-27T22:25:55.210Z,2.57
2019-06-27T22:31:00.395Z,2.07
2019-06-27T22:36:05.944Z,2.13
2019-06-27T22:41:28.928Z,2.27
2019-06-27T22:46:51.928Z,2.07
2019-06-27T22:52:14.777Z,2.33
2019-06-27T22:57:20.420Z,2.10
2019-06-27T23:02:25.811Z,2.17
2019-06-27T23:07:31.262Z,2.20
2019-06-27T23:12:36.629Z,2.27
2019-06-27T23:17:42.027Z,2.20
2019-06-27T23:22:47.274Z,2.13
2019-06-27T23:27:52.656Z,2.10
2019-06-27T23:32:57.828Z,2.47
2019-06-27T23:38:03.069Z,2.27
2019-06-27T23:43:08.554Z,2.17
2019-06-27T23:48:13.814Z,2.37
2019-06-27T23:53:18.994Z,2.30
2019-06-27T23:58:24.365Z,2.27
